Terminal Aerodrome Forecast
Issued by NWS Sterling, VA

Current Version | Previous Version | Text Only | Print | Product List | Glossary Off
Versions: 1 2 3 4 5 6 7 8 9 10 11 12 13 14 15 16 17 18 19 20 21 22 23 24

000
FTUS41 KLWX 201100
TAFDCA
TAF
KDCA 201134Z 2012/2112 VRB03KT P6SM SCT200
     FM201500 17007KT P6SM SCT200
     FM201800 18011KT P6SM BKN200
     FM202300 17006KT P6SM BKN200=

USA.gov is the U.S. government's official web portal to all federal, state and local government web resources and services.